sensor_id;sensor_type;location;lat;lon;timestamp;temperature;humidity
22106;DHT22;11219;51.486;6.950;2022-07-06T00:01:46;15.90;73.50
22106;DHT22;11219;51.486;6.950;2022-07-06T00:04:13;15.90;73.60
22106;DHT22;11219;51.486;6.950;2022-07-06T00:06:40;17.90;75.00
22106;DHT22;11219;51.486;6.950;2022-07-06T00:09:06;15.80;73.40
22106;DHT22;11219;51.486;6.950;2022-07-06T00:11:33;18.10;75.00
22106;DHT22;11219;51.486;6.950;2022-07-06T00:14:02;16.10;73.70
22106;DHT22;11219;51.486;6.950;2022-07-06T00:16:29;16.50;74.10
22106;DHT22;11219;51.486;6.950;2022-07-06T00:18:56;17.00;74.60
22106;DHT22;11219;51.486;6.950;2022-07-06T00:21:22;16.50;75.20
22106;DHT22;11219;51.486;6.950;2022-07-06T00:23:51;15.90;74.10
22106;DHT22;11219;51.486;6.950;2022-07-06T00:26:18;15.90;74.00
22106;DHT22;11219;51.486;6.950;2022-07-06T00:28:45;16.00;74.10
22106;DHT22;11219;51.486;6.950;2022-07-06T00:31:13;16.00;74.30
22106;DHT22;11219;51.486;6.950;2022-07-06T00:33:40;16.40;74.50
22106;DHT22;11219;51.486;6.950;2022-07-06T00:36:07;16.00;74.20
22106;DHT22;11219;51.486;6.950;2022-07-06T00:38:34;16.00;74.40
22106;DHT22;11219;51.486;6.950;2022-07-06T00:41:01;16.10;74.30
22106;DHT22;11219;51.486;6.950;2022-07-06T00:43:28;16.00;74.40
22106;DHT22;11219;51.486;6.950;2022-07-06T00:45:55;19.40;76.80
22106;DHT22;11219;51.486;6.950;2022-07-06T00:48:23;15.90;74.70
22106;DHT22;11219;51.486;6.950;2022-07-06T00:50:50;15.90;75.00
22106;DHT22;11219;51.486;6.950;2022-07-06T00:53:17;15.80;75.20
22106;DHT22;11219;51.486;6.950;2022-07-06T00:55:44;15.70;75.10
22106;DHT22;11219;51.486;6.950;2022-07-06T00:58:11;17.50;77.00
22106;DHT22;11219;51.486;6.950;2022-07-06T01:00:38;15.80;76.00
22106;DHT22;11219;51.486;6.950;2022-07-06T01:03:10;15.70;76.10
22106;DHT22;11219;51.486;6.950;2022-07-06T01:05:38;15.70;76.40
22106;DHT22;11219;51.486;6.950;2022-07-06T01:08:05;17.40;77.60
22106;DHT22;11219;51.486;6.950;2022-07-06T01:10:32;17.20;77.80
22106;DHT22;11219;51.486;6.950;2022-07-06T01:12:59;17.20;77.90
22106;DHT22;11219;51.486;6.950;2022-07-06T01:15:26;15.40;77.10
22106;DHT22;11219;51.486;6.950;2022-07-06T01:17:53;15.40;77.40
22106;DHT22;11219;51.486;6.950;2022-07-06T01:20:22;15.30;77.60
22106;DHT22;11219;51.486;6.950;2022-07-06T01:22:50;15.30;78.10
22106;DHT22;11219;51.486;6.950;2022-07-06T01:25:18;15.20;78.30
22106;DHT22;11219;51.486;6.950;2022-07-06T01:27:45;16.60;79.40
22106;DHT22;11219;51.486;6.950;2022-07-06T01:30:13;15.10;78.50
22106;DHT22;11219;51.486;6.950;2022-07-06T01:32:41;15.00;79.00
22106;DHT22;11219;51.486;6.950;2022-07-06T01:35:10;14.90;79.10
22106;DHT22;11219;51.486;6.950;2022-07-06T01:37:38;14.90;79.50
22106;DHT22;11219;51.486;6.950;2022-07-06T01:40:07;16.00;80.30
22106;DHT22;11219;51.486;6.950;2022-07-06T01:42:34;14.80;80.00
22106;DHT22;11219;51.486;6.950;2022-07-06T01:45:03;14.80;80.20
22106;DHT22;11219;51.486;6.950;2022-07-06T01:47:30;14.80;80.50
22106;DHT22;11219;51.486;6.950;2022-07-06T01:49:59;14.70;80.50
22106;DHT22;11219;51.486;6.950;2022-07-06T01:52:26;14.70;80.90
22106;DHT22;11219;51.486;6.950;2022-07-06T01:54:55;16.60;82.20
22106;DHT22;11219;51.486;6.950;2022-07-06T01:57:22;14.60;81.20
22106;DHT22;11219;51.486;6.950;2022-07-06T01:59:48;14.60;81.20
22106;DHT22;11219;51.486;6.950;2022-07-06T02:02:15;17.00;83.00
22106;DHT22;11219;51.486;6.950;2022-07-06T02:04:43;15.40;82.70
22106;DHT22;11219;51.486;6.950;2022-07-06T02:07:10;14.40;82.00
22106;DHT22;11219;51.486;6.950;2022-07-06T02:09:36;14.40;82.20
22106;DHT22;11219;51.486;6.950;2022-07-06T02:12:05;14.20;82.20
22106;DHT22;11219;51.486;6.950;2022-07-06T02:14:32;14.30;82.70
22106;DHT22;11219;51.486;6.950;2022-07-06T02:16:59;14.30;83.60
22106;DHT22;11219;51.486;6.950;2022-07-06T02:19:26;14.20;83.00
22106;DHT22;11219;51.486;6.950;2022-07-06T02:21:53;14.20;83.20
22106;DHT22;11219;51.486;6.950;2022-07-06T02:24:20;14.20;83.30
22106;DHT22;11219;51.486;6.950;2022-07-06T02:26:47;14.20;83.50
22106;DHT22;11219;51.486;6.950;2022-07-06T02:29:15;15.70;84.50
22106;DHT22;11219;51.486;6.950;2022-07-06T02:31:48;14.10;83.80
22106;DHT22;11219;51.486;6.950;2022-07-06T02:34:15;15.40;84.70
22106;DHT22;11219;51.486;6.950;2022-07-06T02:36:42;14.10;84.00
22106;DHT22;11219;51.486;6.950;2022-07-06T02:39:09;14.00;84.20
22106;DHT22;11219;51.486;6.950;2022-07-06T02:41:36;16.60;86.00
22106;DHT22;11219;51.486;6.950;2022-07-06T02:44:03;14.00;84.60
22106;DHT22;11219;51.486;6.950;2022-07-06T02:46:31;14.00;84.80
22106;DHT22;11219;51.486;6.950;2022-07-06T02:48:58;14.00;84.90
22106;DHT22;11219;51.486;6.950;2022-07-06T02:51:25;14.00;85.10
22106;DHT22;11219;51.486;6.950;2022-07-06T02:53:52;14.00;85.30
22106;DHT22;11219;51.486;6.950;2022-07-06T02:56:19;14.00;85.60
22106;DHT22;11219;51.486;6.950;2022-07-06T02:58:46;13.90;85.70
22106;DHT22;11219;51.486;6.950;2022-07-06T03:01:13;14.30;86.90
22106;DHT22;11219;51.486;6.950;2022-07-06T03:03:41;14.10;86.00
22106;DHT22;11219;51.486;6.950;2022-07-06T03:06:08;14.70;86.60
22106;DHT22;11219;51.486;6.950;2022-07-06T03:08:35;13.90;86.20
22106;DHT22;11219;51.486;6.950;2022-07-06T03:11:02;13.90;86.40
22106;DHT22;11219;51.486;6.950;2022-07-06T03:13:29;13.80;86.60
22106;DHT22;11219;51.486;6.950;2022-07-06T03:15:56;14.10;87.00
22106;DHT22;11219;51.486;6.950;2022-07-06T03:18:23;14.20;87.20
22106;DHT22;11219;51.486;6.950;2022-07-06T03:20:51;13.90;87.20
22106;DHT22;11219;51.486;6.950;2022-07-06T03:23:18;14.00;87.30
22106;DHT22;11219;51.486;6.950;2022-07-06T03:25:46;14.00;87.40
22106;DHT22;11219;51.486;6.950;2022-07-06T03:28:14;14.10;87.40
22106;DHT22;11219;51.486;6.950;2022-07-06T03:33:08;14.20;87.00
22106;DHT22;11219;51.486;6.950;2022-07-06T03:35:34;14.30;87.40
22106;DHT22;11219;51.486;6.950;2022-07-06T03:38:03;15.60;88.20
22106;DHT22;11219;51.486;6.950;2022-07-06T03:40:30;14.40;87.50
22106;DHT22;11219;51.486;6.950;2022-07-06T03:42:57;16.20;88.60
22106;DHT22;11219;51.486;6.950;2022-07-06T03:45:24;16.20;88.60
22106;DHT22;11219;51.486;6.950;2022-07-06T03:47:51;14.50;87.50
22106;DHT22;11219;51.486;6.950;2022-07-06T03:50:18;14.80;87.80
22106;DHT22;11219;51.486;6.950;2022-07-06T03:52:45;14.50;87.60
22106;DHT22;11219;51.486;6.950;2022-07-06T03:55:13;14.90;87.90
22106;DHT22;11219;51.486;6.950;2022-07-06T03:57:40;14.60;87.90
22106;DHT22;11219;51.486;6.950;2022-07-06T04:00:08;14.60;88.00
22106;DHT22;11219;51.486;6.950;2022-07-06T04:02:35;14.70;88.20
22106;DHT22;11219;51.486;6.950;2022-07-06T04:05:02;14.70;87.80
22106;DHT22;11219;51.486;6.950;2022-07-06T04:07:29;14.80;87.80
22106;DHT22;11219;51.486;6.950;2022-07-06T04:09:56;16.90;89.00
22106;DHT22;11219;51.486;6.950;2022-07-06T04:12:24;14.90;87.70
22106;DHT22;11219;51.486;6.950;2022-07-06T04:14:51;15.10;87.80
22106;DHT22;11219;51.486;6.950;2022-07-06T04:17:18;15.10;87.80
22106;DHT22;11219;51.486;6.950;2022-07-06T04:20:03;15.10;87.70
22106;DHT22;11219;51.486;6.950;2022-07-06T04:22:30;15.20;87.70
22106;DHT22;11219;51.486;6.950;2022-07-06T04:24:57;16.80;88.50
22106;DHT22;11219;51.486;6.950;2022-07-06T04:27:25;17.00;88.50
22106;DHT22;11219;51.486;6.950;2022-07-06T04:29:53;15.40;87.50
22106;DHT22;11219;51.486;6.950;2022-07-06T04:32:20;15.30;87.60
22106;DHT22;11219;51.486;6.950;2022-07-06T04:34:47;17.00;88.70
22106;DHT22;11219;51.486;6.950;2022-07-06T04:37:13;16.10;88.10
22106;DHT22;11219;51.486;6.950;2022-07-06T04:39:40;15.50;87.50
22106;DHT22;11219;51.486;6.950;2022-07-06T04:42:07;15.60;87.30
22106;DHT22;11219;51.486;6.950;2022-07-06T04:44:35;15.60;87.00
22106;DHT22;11219;51.486;6.950;2022-07-06T04:47:02;15.70;87.00
22106;DHT22;11219;51.486;6.950;2022-07-06T04:49:29;15.90;86.80
22106;DHT22;11219;51.486;6.950;2022-07-06T04:51:56;16.50;86.70
22106;DHT22;11219;51.486;6.950;2022-07-06T04:54:23;16.60;86.50
22106;DHT22;11219;51.486;6.950;2022-07-06T04:56:50;16.20;86.00
22106;DHT22;11219;51.486;6.950;2022-07-06T04:59:17;16.20;85.70
22106;DHT22;11219;51.486;6.950;2022-07-06T05:01:45;16.20;85.50
22106;DHT22;11219;51.486;6.950;2022-07-06T05:04:12;16.70;85.80
22106;DHT22;11219;51.486;6.950;2022-07-06T05:06:39;16.40;85.70
22106;DHT22;11219;51.486;6.950;2022-07-06T05:09:06;16.10;85.60
22106;DHT22;11219;51.486;6.950;2022-07-06T05:11:33;16.20;85.80
22106;DHT22;11219;51.486;6.950;2022-07-06T05:13:59;17.00;86.40
22106;DHT22;11219;51.486;6.950;2022-07-06T05:16:27;16.10;85.80
22106;DHT22;11219;51.486;6.950;2022-07-06T05:18:55;16.10;85.60
22106;DHT22;11219;51.486;6.950;2022-07-06T05:21:22;16.60;85.90
22106;DHT22;11219;51.486;6.950;2022-07-06T05:23:54;16.10;85.50
22106;DHT22;11219;51.486;6.950;2022-07-06T05:26:21;16.10;85.50
22106;DHT22;11219;51.486;6.950;2022-07-06T05:28:47;16.30;85.70
22106;DHT22;11219;51.486;6.950;2022-07-06T05:31:14;16.20;85.50
22106;DHT22;11219;51.486;6.950;2022-07-06T05:33:41;16.20;85.40
22106;DHT22;11219;51.486;6.950;2022-07-06T05:36:10;16.50;85.40
22106;DHT22;11219;51.486;6.950;2022-07-06T05:38:36;16.30;85.00
22106;DHT22;11219;51.486;6.950;2022-07-06T05:41:04;16.40;84.80
22106;DHT22;11219;51.486;6.950;2022-07-06T05:43:31;16.70;85.00
22106;DHT22;11219;51.486;6.950;2022-07-06T05:45:58;16.50;84.70
22106;DHT22;11219;51.486;6.950;2022-07-06T05:48:25;16.90;84.60
22106;DHT22;11219;51.486;6.950;2022-07-06T05:51:10;17.80;84.80
22106;DHT22;11219;51.486;6.950;2022-07-06T05:53:37;20.30;78.60
22106;DHT22;11219;51.486;6.950;2022-07-06T05:56:04;21.20;72.90
22106;DHT22;11219;51.486;6.950;2022-07-06T05:58:31;21.20;71.30
22106;DHT22;11219;51.486;6.950;2022-07-06T06:00:58;20.70;71.20
22106;DHT22;11219;51.486;6.950;2022-07-06T06:03:25;20.20;72.20
22106;DHT22;11219;51.486;6.950;2022-07-06T06:05:55;19.70;73.10
22106;DHT22;11219;51.486;6.950;2022-07-06T06:08:24;19.40;73.70
22106;DHT22;11219;51.486;6.950;2022-07-06T06:10:51;19.20;74.20
22106;DHT22;11219;51.486;6.950;2022-07-06T06:13:18;19.80;75.00
22106;DHT22;11219;51.486;6.950;2022-07-06T06:15:45;19.20;74.30
22106;DHT22;11219;51.486;6.950;2022-07-06T06:18:12;19.20;73.80
22106;DHT22;11219;51.486;6.950;2022-07-06T06:20:42;19.20;74.00
22106;DHT22;11219;51.486;6.950;2022-07-06T06:23:09;19.20;73.60
22106;DHT22;11219;51.486;6.950;2022-07-06T06:25:38;19.20;73.50
22106;DHT22;11219;51.486;6.950;2022-07-06T06:28:06;19.30;73.40
22106;DHT22;11219;51.486;6.950;2022-07-06T06:30:34;19.40;73.10
22106;DHT22;11219;51.486;6.950;2022-07-06T06:33:08;19.40;72.70
22106;DHT22;11219;51.486;6.950;2022-07-06T06:35:35;19.40;72.70
22106;DHT22;11219;51.486;6.950;2022-07-06T06:38:02;19.40;72.50
22106;DHT22;11219;51.486;6.950;2022-07-06T06:40:29;19.60;72.40
22106;DHT22;11219;51.486;6.950;2022-07-06T06:42:57;19.70;72.10
22106;DHT22;11219;51.486;6.950;2022-07-06T06:45:24;19.60;72.10
22106;DHT22;11219;51.486;6.950;2022-07-06T06:47:51;19.60;71.90
22106;DHT22;11219;51.486;6.950;2022-07-06T06:50:18;19.80;71.30
22106;DHT22;11219;51.486;6.950;2022-07-06T06:52:45;20.00;70.40
22106;DHT22;11219;51.486;6.950;2022-07-06T06:55:12;20.20;69.50
22106;DHT22;11219;51.486;6.950;2022-07-06T06:57:38;20.40;69.30
22106;DHT22;11219;51.486;6.950;2022-07-06T07:00:09;20.60;68.50
22106;DHT22;11219;51.486;6.950;2022-07-06T07:02:36;20.70;67.90
22106;DHT22;11219;51.486;6.950;2022-07-06T07:05:05;20.90;67.50
22106;DHT22;11219;51.486;6.950;2022-07-06T07:07:32;21.10;67.60
22106;DHT22;11219;51.486;6.950;2022-07-06T07:09:59;21.20;66.60
22106;DHT22;11219;51.486;6.950;2022-07-06T07:12:25;21.20;65.90
22106;DHT22;11219;51.486;6.950;2022-07-06T07:14:52;21.30;65.60
22106;DHT22;11219;51.486;6.950;2022-07-06T07:17:20;21.30;65.00
22106;DHT22;11219;51.486;6.950;2022-07-06T07:19:47;21.30;64.80
22106;DHT22;11219;51.486;6.950;2022-07-06T07:22:14;21.30;64.30
22106;DHT22;11219;51.486;6.950;2022-07-06T07:24:41;21.70;63.90
22106;DHT22;11219;51.486;6.950;2022-07-06T07:27:08;22.40;62.00
22106;DHT22;11219;51.486;6.950;2022-07-06T07:29:35;22.80;60.20
22106;DHT22;11219;51.486;6.950;2022-07-06T07:32:02;23.10;58.90
22106;DHT22;11219;51.486;6.950;2022-07-06T07:34:30;23.70;58.10
22106;DHT22;11219;51.486;6.950;2022-07-06T07:36:57;23.90;56.80
22106;DHT22;11219;51.486;6.950;2022-07-06T07:39:24;24.20;55.90
22106;DHT22;11219;51.486;6.950;2022-07-06T07:41:51;24.50;55.10
22106;DHT22;11219;51.486;6.950;2022-07-06T07:44:18;24.80;55.20
22106;DHT22;11219;51.486;6.950;2022-07-06T07:46:44;24.90;54.20
22106;DHT22;11219;51.486;6.950;2022-07-06T07:49:11;24.90;54.40
22106;DHT22;11219;51.486;6.950;2022-07-06T07:51:39;25.20;54.20
22106;DHT22;11219;51.486;6.950;2022-07-06T07:54:07;25.70;53.40
22106;DHT22;11219;51.486;6.950;2022-07-06T07:56:34;27.10;51.20
22106;DHT22;11219;51.486;6.950;2022-07-06T07:59:01;28.50;48.40
22106;DHT22;11219;51.486;6.950;2022-07-06T08:01:28;29.90;46.30
22106;DHT22;11219;51.486;6.950;2022-07-06T08:03:55;31.10;44.10
22106;DHT22;11219;51.486;6.950;2022-07-06T08:06:21;30.40;42.80
22106;DHT22;11219;51.486;6.950;2022-07-06T08:08:50;28.70;43.50
22106;DHT22;11219;51.486;6.950;2022-07-06T08:11:17;27.90;45.40
22106;DHT22;11219;51.486;6.950;2022-07-06T08:13:44;28.30;44.50
22106;DHT22;11219;51.486;6.950;2022-07-06T08:16:11;28.70;44.60
22106;DHT22;11219;51.486;6.950;2022-07-06T08:18:37;29.70;44.90
22106;DHT22;11219;51.486;6.950;2022-07-06T08:21:05;27.60;44.90
22106;DHT22;11219;51.486;6.950;2022-07-06T08:23:31;26.50;47.20
22106;DHT22;11219;51.486;6.950;2022-07-06T08:26:01;25.30;47.90
22106;DHT22;11219;51.486;6.950;2022-07-06T08:28:28;24.30;49.30
22106;DHT22;11219;51.486;6.950;2022-07-06T08:30:55;23.60;50.30
22106;DHT22;11219;51.486;6.950;2022-07-06T08:33:23;23.40;51.20
22106;DHT22;11219;51.486;6.950;2022-07-06T08:35:49;23.70;51.20
22106;DHT22;11219;51.486;6.950;2022-07-06T08:38:16;24.80;51.00
22106;DHT22;11219;51.486;6.950;2022-07-06T08:40:47;24.40;50.10
22106;DHT22;11219;51.486;6.950;2022-07-06T08:43:17;24.20;51.10
22106;DHT22;11219;51.486;6.950;2022-07-06T08:45:45;23.80;51.60
22106;DHT22;11219;51.486;6.950;2022-07-06T08:48:13;24.60;52.30
22106;DHT22;11219;51.486;6.950;2022-07-06T08:50:39;23.00;51.80
22106;DHT22;11219;51.486;6.950;2022-07-06T08:53:06;22.60;52.10
22106;DHT22;11219;51.486;6.950;2022-07-06T08:55:34;22.20;52.80
22106;DHT22;11219;51.486;6.950;2022-07-06T08:58:02;22.00;53.30
22106;DHT22;11219;51.486;6.950;2022-07-06T09:00:32;21.90;53.80
22106;DHT22;11219;51.486;6.950;2022-07-06T09:03:00;22.00;53.70
22106;DHT22;11219;51.486;6.950;2022-07-06T09:05:28;22.70;53.00
22106;DHT22;11219;51.486;6.950;2022-07-06T09:07:56;23.10;51.90
22106;DHT22;11219;51.486;6.950;2022-07-06T09:10:23;23.20;51.50
22106;DHT22;11219;51.486;6.950;2022-07-06T09:12:50;23.00;51.60
22106;DHT22;11219;51.486;6.950;2022-07-06T09:15:17;22.80;52.30
22106;DHT22;11219;51.486;6.950;2022-07-06T09:17:45;22.60;52.60
22106;DHT22;11219;51.486;6.950;2022-07-06T09:20:13;22.30;52.80
22106;DHT22;11219;51.486;6.950;2022-07-06T09:22:40;22.20;53.30
22106;DHT22;11219;51.486;6.950;2022-07-06T09:25:09;22.10;53.30
22106;DHT22;11219;51.486;6.950;2022-07-06T09:27:40;22.30;53.20
22106;DHT22;11219;51.486;6.950;2022-07-06T09:30:08;23.60;52.40
22106;DHT22;11219;51.486;6.950;2022-07-06T09:32:39;24.80;50.30
22106;DHT22;11219;51.486;6.950;2022-07-06T09:35:09;25.30;49.00
22106;DHT22;11219;51.486;6.950;2022-07-06T09:37:45;25.00;49.20
22106;DHT22;11219;51.486;6.950;2022-07-06T09:40:16;24.70;49.50
22106;DHT22;11219;51.486;6.950;2022-07-06T09:43:14;24.40;49.80
22106;DHT22;11219;51.486;6.950;2022-07-06T09:45:43;24.30;49.90
22106;DHT22;11219;51.486;6.950;2022-07-06T09:48:12;24.30;49.50
22106;DHT22;11219;51.486;6.950;2022-07-06T09:50:41;24.10;49.30
22106;DHT22;11219;51.486;6.950;2022-07-06T09:53:09;24.00;49.90
22106;DHT22;11219;51.486;6.950;2022-07-06T09:55:37;24.40;50.30
22106;DHT22;11219;51.486;6.950;2022-07-06T09:58:04;23.50;50.20
22106;DHT22;11219;51.486;6.950;2022-07-06T10:00:32;23.50;50.60
22106;DHT22;11219;51.486;6.950;2022-07-06T10:03:00;24.00;50.50
22106;DHT22;11219;51.486;6.950;2022-07-06T10:05:27;25.40;48.70
22106;DHT22;11219;51.486;6.950;2022-07-06T10:07:59;25.90;47.90
22106;DHT22;11219;51.486;6.950;2022-07-06T10:10:28;25.90;46.90
22106;DHT22;11219;51.486;6.950;2022-07-06T10:12:56;25.30;47.00
22106;DHT22;11219;51.486;6.950;2022-07-06T10:15:25;24.60;47.60
22106;DHT22;11219;51.486;6.950;2022-07-06T10:17:54;24.10;48.40
22106;DHT22;11219;51.486;6.950;2022-07-06T10:20:21;23.90;49.40
22106;DHT22;11219;51.486;6.950;2022-07-06T10:22:49;24.60;50.40
22106;DHT22;11219;51.486;6.950;2022-07-06T10:25:18;26.60;49.30
22106;DHT22;11219;51.486;6.950;2022-07-06T10:27:46;26.30;47.20
22106;DHT22;11219;51.486;6.950;2022-07-06T10:30:14;26.60;45.70
22106;DHT22;11219;51.486;6.950;2022-07-06T10:32:43;26.50;45.40
22106;DHT22;11219;51.486;6.950;2022-07-06T10:35:11;26.00;45.80
22106;DHT22;11219;51.486;6.950;2022-07-06T10:37:38;25.60;46.20
22106;DHT22;11219;51.486;6.950;2022-07-06T10:40:06;25.20;46.90
22106;DHT22;11219;51.486;6.950;2022-07-06T10:42:58;24.80;47.50
22106;DHT22;11219;51.486;6.950;2022-07-06T10:45:49;24.60;48.40
22106;DHT22;11219;51.486;6.950;2022-07-06T10:48:16;24.20;49.50
22106;DHT22;11219;51.486;6.950;2022-07-06T10:50:47;24.00;49.20
22106;DHT22;11219;51.486;6.950;2022-07-06T10:53:15;23.80;49.50
22106;DHT22;11219;51.486;6.950;2022-07-06T10:55:44;23.50;49.50
22106;DHT22;11219;51.486;6.950;2022-07-06T10:58:13;23.20;49.50
22106;DHT22;11219;51.486;6.950;2022-07-06T11:00:51;22.90;50.10
22106;DHT22;11219;51.486;6.950;2022-07-06T11:03:32;22.70;50.40
22106;DHT22;11219;51.486;6.950;2022-07-06T11:06:00;22.50;51.60
22106;DHT22;11219;51.486;6.950;2022-07-06T11:08:52;22.40;51.20
22106;DHT22;11219;51.486;6.950;2022-07-06T11:11:21;22.50;51.50
22106;DHT22;11219;51.486;6.950;2022-07-06T11:13:53;23.20;51.80
22106;DHT22;11219;51.486;6.950;2022-07-06T11:16:21;22.70;51.20
22106;DHT22;11219;51.486;6.950;2022-07-06T11:19:00;22.80;51.00
22106;DHT22;11219;51.486;6.950;2022-07-06T11:21:35;23.00;50.50
22106;DHT22;11219;51.486;6.950;2022-07-06T11:24:04;23.40;50.40
22106;DHT22;11219;51.486;6.950;2022-07-06T11:26:32;23.80;50.40
22106;DHT22;11219;51.486;6.950;2022-07-06T11:29:03;24.20;49.80
22106;DHT22;11219;51.486;6.950;2022-07-06T11:31:30;24.40;49.30
22106;DHT22;11219;51.486;6.950;2022-07-06T11:33:57;24.40;49.20
22106;DHT22;11219;51.486;6.950;2022-07-06T11:36:23;24.30;49.20
22106;DHT22;11219;51.486;6.950;2022-07-06T11:38:51;24.20;49.10
22106;DHT22;11219;51.486;6.950;2022-07-06T11:41:17;24.20;48.30
22106;DHT22;11219;51.486;6.950;2022-07-06T11:43:46;24.30;47.80
22106;DHT22;11219;51.486;6.950;2022-07-06T11:46:24;24.40;47.40
22106;DHT22;11219;51.486;6.950;2022-07-06T11:48:53;24.50;47.30
22106;DHT22;11219;51.486;6.950;2022-07-06T11:51:21;24.40;47.10
22106;DHT22;11219;51.486;6.950;2022-07-06T11:53:50;24.50;46.90
22106;DHT22;11219;51.486;6.950;2022-07-06T11:56:34;24.50;47.10
22106;DHT22;11219;51.486;6.950;2022-07-06T11:59:02;24.80;46.70
22106;DHT22;11219;51.486;6.950;2022-07-06T12:01:31;24.90;46.60
22106;DHT22;11219;51.486;6.950;2022-07-06T12:03:59;25.00;46.50
22106;DHT22;11219;51.486;6.950;2022-07-06T12:06:27;25.00;46.30
22106;DHT22;11219;51.486;6.950;2022-07-06T12:08:55;25.00;46.20
22106;DHT22;11219;51.486;6.950;2022-07-06T12:11:24;25.00;46.20
22106;DHT22;11219;51.486;6.950;2022-07-06T12:13:53;25.00;46.00
22106;DHT22;11219;51.486;6.950;2022-07-06T12:16:26;24.90;46.20
22106;DHT22;11219;51.486;6.950;2022-07-06T12:18:56;25.00;46.60
22106;DHT22;11219;51.486;6.950;2022-07-06T12:21:23;25.10;46.50
22106;DHT22;11219;51.486;6.950;2022-07-06T12:23:51;25.80;46.40
22106;DHT22;11219;51.486;6.950;2022-07-06T12:26:21;25.30;45.90
22106;DHT22;11219;51.486;6.950;2022-07-06T12:28:59;25.20;46.00
22106;DHT22;11219;51.486;6.950;2022-07-06T12:31:33;25.10;46.40
22106;DHT22;11219;51.486;6.950;2022-07-06T12:34:02;24.90;47.20
22106;DHT22;11219;51.486;6.950;2022-07-06T12:36:29;24.80;47.20
22106;DHT22;11219;51.486;6.950;2022-07-06T12:38:57;24.70;47.70
22106;DHT22;11219;51.486;6.950;2022-07-06T12:41:29;24.80;47.40
22106;DHT22;11219;51.486;6.950;2022-07-06T12:44:02;24.70;47.20
22106;DHT22;11219;51.486;6.950;2022-07-06T12:46:31;24.80;47.80
22106;DHT22;11219;51.486;6.950;2022-07-06T12:49:00;24.80;47.70
22106;DHT22;11219;51.486;6.950;2022-07-06T12:51:28;25.40;48.00
22106;DHT22;11219;51.486;6.950;2022-07-06T12:54:13;24.70;47.30
22106;DHT22;11219;51.486;6.950;2022-07-06T12:56:59;24.60;47.60
22106;DHT22;11219;51.486;6.950;2022-07-06T12:59:26;24.50;47.60
22106;DHT22;11219;51.486;6.950;2022-07-06T13:01:53;24.50;47.60
22106;DHT22;11219;51.486;6.950;2022-07-06T13:04:22;24.80;47.70
22106;DHT22;11219;51.486;6.950;2022-07-06T13:06:51;25.00;47.20
22106;DHT22;11219;51.486;6.950;2022-07-06T13:09:18;25.00;46.80
22106;DHT22;11219;51.486;6.950;2022-07-06T13:11:46;25.00;46.60
22106;DHT22;11219;51.486;6.950;2022-07-06T13:14:14;24.80;46.70
22106;DHT22;11219;51.486;6.950;2022-07-06T13:16:47;24.60;46.90
22106;DHT22;11219;51.486;6.950;2022-07-06T13:19:15;24.50;47.40
22106;DHT22;11219;51.486;6.950;2022-07-06T13:21:42;24.40;48.00
22106;DHT22;11219;51.486;6.950;2022-07-06T13:24:11;24.40;48.20
22106;DHT22;11219;51.486;6.950;2022-07-06T13:26:39;24.60;48.10
22106;DHT22;11219;51.486;6.950;2022-07-06T13:29:06;24.90;47.80
22106;DHT22;11219;51.486;6.950;2022-07-06T13:31:32;25.20;47.10
22106;DHT22;11219;51.486;6.950;2022-07-06T13:34:00;25.20;47.30
22106;DHT22;11219;51.486;6.950;2022-07-06T13:36:26;25.30;47.10
22106;DHT22;11219;51.486;6.950;2022-07-06T13:38:53;25.50;46.50
22106;DHT22;11219;51.486;6.950;2022-07-06T13:41:21;25.40;46.10
22106;DHT22;11219;51.486;6.950;2022-07-06T13:43:48;25.30;46.30
22106;DHT22;11219;51.486;6.950;2022-07-06T13:46:15;25.20;46.30
22106;DHT22;11219;51.486;6.950;2022-07-06T13:48:43;25.00;46.50
22106;DHT22;11219;51.486;6.950;2022-07-06T13:51:11;25.00;47.20
22106;DHT22;11219;51.486;6.950;2022-07-06T13:53:37;24.90;47.00
22106;DHT22;11219;51.486;6.950;2022-07-06T13:56:05;25.00;47.00
22106;DHT22;11219;51.486;6.950;2022-07-06T13:58:35;25.00;46.90
22106;DHT22;11219;51.486;6.950;2022-07-06T14:01:02;25.00;46.80
22106;DHT22;11219;51.486;6.950;2022-07-06T14:03:30;25.10;46.90
22106;DHT22;11219;51.486;6.950;2022-07-06T14:05:58;25.10;47.10
22106;DHT22;11219;51.486;6.950;2022-07-06T14:08:26;25.00;46.60
22106;DHT22;11219;51.486;6.950;2022-07-06T14:10:54;25.00;46.50
22106;DHT22;11219;51.486;6.950;2022-07-06T14:13:22;25.00;46.20
22106;DHT22;11219;51.486;6.950;2022-07-06T14:15:51;25.00;46.00
22106;DHT22;11219;51.486;6.950;2022-07-06T14:18:18;25.00;46.00
22106;DHT22;11219;51.486;6.950;2022-07-06T14:20:51;25.10;46.10
22106;DHT22;11219;51.486;6.950;2022-07-06T14:23:19;25.10;46.30
22106;DHT22;11219;51.486;6.950;2022-07-06T14:25:47;25.20;46.30
22106;DHT22;11219;51.486;6.950;2022-07-06T14:28:14;25.10;46.60
22106;DHT22;11219;51.486;6.950;2022-07-06T14:30:42;25.10;46.60
22106;DHT22;11219;51.486;6.950;2022-07-06T14:33:12;25.00;46.30
22106;DHT22;11219;51.486;6.950;2022-07-06T14:35:41;24.90;46.60
22106;DHT22;11219;51.486;6.950;2022-07-06T14:38:09;24.90;46.70
22106;DHT22;11219;51.486;6.950;2022-07-06T14:40:36;25.00;46.60
22106;DHT22;11219;51.486;6.950;2022-07-06T14:43:03;25.40;46.40
22106;DHT22;11219;51.486;6.950;2022-07-06T14:45:30;25.80;45.60
22106;DHT22;11219;51.486;6.950;2022-07-06T14:47:58;26.20;45.50
22106;DHT22;11219;51.486;6.950;2022-07-06T14:50:26;26.30;44.80
22106;DHT22;11219;51.486;6.950;2022-07-06T14:52:54;26.30;45.20
22106;DHT22;11219;51.486;6.950;2022-07-06T14:55:22;26.40;45.10
22106;DHT22;11219;51.486;6.950;2022-07-06T14:57:49;26.80;44.90
22106;DHT22;11219;51.486;6.950;2022-07-06T15:00:16;27.20;44.70
22106;DHT22;11219;51.486;6.950;2022-07-06T15:02:44;27.30;43.90
22106;DHT22;11219;51.486;6.950;2022-07-06T15:05:11;27.40;43.30
22106;DHT22;11219;51.486;6.950;2022-07-06T15:07:40;27.30;43.00
22106;DHT22;11219;51.486;6.950;2022-07-06T15:10:08;27.40;43.00
22106;DHT22;11219;51.486;6.950;2022-07-06T15:12:35;27.50;42.90
22106;DHT22;11219;51.486;6.950;2022-07-06T15:15:03;27.60;42.60
22106;DHT22;11219;51.486;6.950;2022-07-06T15:17:30;27.60;42.20
22106;DHT22;11219;51.486;6.950;2022-07-06T15:19:58;27.40;42.20
22106;DHT22;11219;51.486;6.950;2022-07-06T15:22:25;27.20;42.10
22106;DHT22;11219;51.486;6.950;2022-07-06T15:24:53;27.10;43.00
22106;DHT22;11219;51.486;6.950;2022-07-06T15:27:20;27.20;42.80
22106;DHT22;11219;51.486;6.950;2022-07-06T15:29:47;27.30;42.30
22106;DHT22;11219;51.486;6.950;2022-07-06T15:32:14;27.30;42.20
22106;DHT22;11219;51.486;6.950;2022-07-06T15:34:41;27.30;42.30
22106;DHT22;11219;51.486;6.950;2022-07-06T15:37:07;27.50;41.90
22106;DHT22;11219;51.486;6.950;2022-07-06T15:39:34;27.30;41.70